sensor_id;sensor_type;location;lat;lon;timestamp;pressure;altitude;pressure_sealevel;temperature;humidity
35649;BME280;21768;48.562;13.414;2022-11-15T00:00:49;97374.00;;;7.18;72.51
35649;BME280;21768;48.562;13.414;2022-11-15T00:03:15;97377.91;;;7.15;72.28
35649;BME280;21768;48.562;13.414;2022-11-15T00:05:41;97373.94;;;7.07;72.58
35649;BME280;21768;48.562;13.414;2022-11-15T00:08:06;97382.84;;;7.03;72.79
35649;BME280;21768;48.562;13.414;2022-11-15T00:10:32;97370.31;;;7.03;72.55
35649;BME280;21768;48.562;13.414;2022-11-15T00:12:57;97371.69;;;7.00;72.68
35649;BME280;21768;48.562;13.414;2022-11-15T00:15:23;97370.69;;;6.98;72.51
35649;BME280;21768;48.562;13.414;2022-11-15T00:17:49;97373.84;;;6.95;72.79
35649;BME280;21768;48.562;13.414;2022-11-15T00:20:15;97362.19;;;6.96;72.60
35649;BME280;21768;48.562;13.414;2022-11-15T00:22:41;97359.56;;;6.94;72.71
35649;BME280;21768;48.562;13.414;2022-11-15T00:25:06;97358.34;;;6.89;72.69
35649;BME280;21768;48.562;13.414;2022-11-15T00:27:32;97355.84;;;6.89;72.75
35649;BME280;21768;48.562;13.414;2022-11-15T00:29:57;97359.34;;;6.91;72.66
35649;BME280;21768;48.562;13.414;2022-11-15T00:32:22;97354.72;;;6.86;72.71
35649;BME280;21768;48.562;13.414;2022-11-15T00:34:48;97358.72;;;6.83;72.46
35649;BME280;21768;48.562;13.414;2022-11-15T00:37:13;97360.50;;;6.85;72.63
35649;BME280;21768;48.562;13.414;2022-11-15T00:39:39;97356.34;;;6.85;72.51
35649;BME280;21768;48.562;13.414;2022-11-15T00:42:04;97354.59;;;6.84;72.59
35649;BME280;21768;48.562;13.414;2022-11-15T00:44:29;97355.34;;;6.83;72.38
35649;BME280;21768;48.562;13.414;2022-11-15T00:46:55;97358.63;;;6.82;72.33
35649;BME280;21768;48.562;13.414;2022-11-15T00:49:20;97361.38;;;6.75;72.69
35649;BME280;21768;48.562;13.414;2022-11-15T00:51:45;97349.72;;;6.75;72.38
35649;BME280;21768;48.562;13.414;2022-11-15T00:54:11;97359.75;;;6.75;72.40
35649;BME280;21768;48.562;13.414;2022-11-15T00:56:36;97342.84;;;6.73;72.75
35649;BME280;21768;48.562;13.414;2022-11-15T00:59:02;97349.72;;;6.75;72.62
35649;BME280;21768;48.562;13.414;2022-11-15T01:01:27;97343.59;;;6.72;72.64
35649;BME280;21768;48.562;13.414;2022-11-15T01:03:52;97348.38;;;6.69;72.51
35649;BME280;21768;48.562;13.414;2022-11-15T01:06:18;97341.63;;;6.68;72.44
35649;BME280;21768;48.562;13.414;2022-11-15T01:08:43;97335.88;;;6.59;72.34
35649;BME280;21768;48.562;13.414;2022-11-15T01:11:11;97332.75;;;6.51;72.75
35649;BME280;21768;48.562;13.414;2022-11-15T01:13:38;97338.66;;;6.52;72.80
35649;BME280;21768;48.562;13.414;2022-11-15T01:16:15;97332.00;;;6.52;72.58
35649;BME280;21768;48.562;13.414;2022-11-15T01:18:41;97322.75;;;6.51;72.65
35649;BME280;21768;48.562;13.414;2022-11-15T01:21:12;97325.63;;;6.45;72.89
35649;BME280;21768;48.562;13.414;2022-11-15T01:23:38;97318.66;;;6.41;73.04
35649;BME280;21768;48.562;13.414;2022-11-15T01:26:06;97318.53;;;6.40;73.24
35649;BME280;21768;48.562;13.414;2022-11-15T01:28:33;97315.41;;;6.42;73.47
35649;BME280;21768;48.562;13.414;2022-11-15T01:31:00;97312.22;;;6.45;73.05
35649;BME280;21768;48.562;13.414;2022-11-15T01:33:26;97313.84;;;6.44;72.89
35649;BME280;21768;48.562;13.414;2022-11-15T01:35:52;97304.38;;;6.40;72.81
35649;BME280;21768;48.562;13.414;2022-11-15T01:38:18;97318.16;;;6.35;72.70
35649;BME280;21768;48.562;13.414;2022-11-15T01:40:43;97310.16;;;6.29;72.55
35649;BME280;21768;48.562;13.414;2022-11-15T01:43:39;97313.16;;;6.25;72.85
35649;BME280;21768;48.562;13.414;2022-11-15T01:46:27;97304.28;;;6.29;72.42
35649;BME280;21768;48.562;13.414;2022-11-15T01:48:52;97297.25;;;6.25;72.47
35649;BME280;21768;48.562;13.414;2022-11-15T01:51:20;97284.38;;;6.20;72.57
35649;BME280;21768;48.562;13.414;2022-11-15T01:53:49;97290.78;;;6.17;72.61
35649;BME280;21768;48.562;13.414;2022-11-15T01:56:25;97290.53;;;6.13;72.76
35649;BME280;21768;48.562;13.414;2022-11-15T01:58:55;97293.69;;;6.11;72.85
35649;BME280;21768;48.562;13.414;2022-11-15T02:01:22;97294.31;;;6.08;72.75
35649;BME280;21768;48.562;13.414;2022-11-15T02:03:52;97292.19;;;6.03;72.84
35649;BME280;21768;48.562;13.414;2022-11-15T02:06:21;97291.44;;;6.04;72.89
35649;BME280;21768;48.562;13.414;2022-11-15T02:08:47;97287.16;;;6.03;73.17
35649;BME280;21768;48.562;13.414;2022-11-15T02:11:13;97279.41;;;6.00;72.83
35649;BME280;21768;48.562;13.414;2022-11-15T02:13:39;97285.03;;;5.97;72.96
35649;BME280;21768;48.562;13.414;2022-11-15T02:18:44;97287.97;;;5.92;73.02
35649;BME280;21768;48.562;13.414;2022-11-15T02:24:20;97278.69;;;5.91;73.19
35649;BME280;21768;48.562;13.414;2022-11-15T02:29:37;97276.19;;;5.91;73.24
35649;BME280;21768;48.562;13.414;2022-11-15T02:32:13;97273.69;;;5.91;73.06
35649;BME280;21768;48.562;13.414;2022-11-15T02:37:21;97274.56;;;5.91;73.08
35649;BME280;21768;48.562;13.414;2022-11-15T02:42:22;97263.38;;;5.88;73.12
35649;BME280;21768;48.562;13.414;2022-11-15T02:45:10;97258.13;;;5.85;73.10
35649;BME280;21768;48.562;13.414;2022-11-15T02:47:43;97254.88;;;5.86;73.00
35649;BME280;21768;48.562;13.414;2022-11-15T02:50:11;97255.63;;;5.85;72.87
35649;BME280;21768;48.562;13.414;2022-11-15T02:52:37;97257.13;;;5.82;72.85
35649;BME280;21768;48.562;13.414;2022-11-15T02:55:03;97255.38;;;5.81;73.06
35649;BME280;21768;48.562;13.414;2022-11-15T02:57:41;97252.63;;;5.78;72.97
35649;BME280;21768;48.562;13.414;2022-11-15T03:00:13;97256.00;;;5.79;72.68
35649;BME280;21768;48.562;13.414;2022-11-15T03:08:04;97250.38;;;5.71;72.75
35649;BME280;21768;48.562;13.414;2022-11-15T03:10:33;97249.28;;;5.68;72.83
35649;BME280;21768;48.562;13.414;2022-11-15T03:13:30;97253.41;;;5.67;73.06
35649;BME280;21768;48.562;13.414;2022-11-15T03:16:35;97249.38;;;5.69;72.78
35649;BME280;21768;48.562;13.414;2022-11-15T03:22:09;97251.03;;;5.69;72.81
35649;BME280;21768;48.562;13.414;2022-11-15T03:24:38;97245.78;;;5.66;72.58
35649;BME280;21768;48.562;13.414;2022-11-15T03:27:05;97244.91;;;5.65;72.83
35649;BME280;21768;48.562;13.414;2022-11-15T03:29:35;97238.91;;;5.63;72.90
35649;BME280;21768;48.562;13.414;2022-11-15T03:32:09;97237.91;;;5.61;72.99
35649;BME280;21768;48.562;13.414;2022-11-15T03:34:47;97244.16;;;5.56;73.04
35649;BME280;21768;48.562;13.414;2022-11-15T03:37:15;97238.63;;;5.50;73.10
35649;BME280;21768;48.562;13.414;2022-11-15T03:39:42;97231.75;;;5.47;73.31
35649;BME280;21768;48.562;13.414;2022-11-15T03:42:30;97238.38;;;5.47;73.34
35649;BME280;21768;48.562;13.414;2022-11-15T03:47:50;97229.66;;;5.42;73.35
35649;BME280;21768;48.562;13.414;2022-11-15T03:50:21;97230.66;;;5.44;73.21
35649;BME280;21768;48.562;13.414;2022-11-15T03:52:48;97228.16;;;5.44;73.35
35649;BME280;21768;48.562;13.414;2022-11-15T03:55:19;97226.63;;;5.46;73.14
35649;BME280;21768;48.562;13.414;2022-11-15T03:57:50;97223.66;;;5.40;73.18
35649;BME280;21768;48.562;13.414;2022-11-15T04:00:16;97218.53;;;5.38;73.35
35649;BME280;21768;48.562;13.414;2022-11-15T04:02:42;97228.28;;;5.35;73.48
35649;BME280;21768;48.562;13.414;2022-11-15T04:05:07;97231.53;;;5.34;73.54
35649;BME280;21768;48.562;13.414;2022-11-15T04:07:33;97233.28;;;5.35;73.39
35649;BME280;21768;48.562;13.414;2022-11-15T04:09:58;97228.16;;;5.34;73.17
35649;BME280;21768;48.562;13.414;2022-11-15T04:12:35;97222.13;;;5.32;73.13
35649;BME280;21768;48.562;13.414;2022-11-15T04:15:04;97229.66;;;5.32;73.22
35649;BME280;21768;48.562;13.414;2022-11-15T04:17:46;97222.88;;;5.31;72.96
35649;BME280;21768;48.562;13.414;2022-11-15T04:20:20;97229.25;;;5.27;73.25
35649;BME280;21768;48.562;13.414;2022-11-15T04:23:20;97228.38;;;5.27;73.28
35649;BME280;21768;48.562;13.414;2022-11-15T04:26:08;97229.00;;;5.24;73.09
35649;BME280;21768;48.562;13.414;2022-11-15T04:28:35;97226.38;;;5.23;72.98
35649;BME280;21768;48.562;13.414;2022-11-15T04:31:21;97220.50;;;5.22;73.19
35649;BME280;21768;48.562;13.414;2022-11-15T04:33:46;97214.88;;;5.25;73.14
35649;BME280;21768;48.562;13.414;2022-11-15T04:36:12;97212.50;;;5.26;72.97
35649;BME280;21768;48.562;13.414;2022-11-15T04:38:56;97203.38;;;5.27;73.04
35649;BME280;21768;48.562;13.414;2022-11-15T04:41:21;97203.13;;;5.24;72.93
35649;BME280;21768;48.562;13.414;2022-11-15T04:43:46;97204.50;;;5.20;73.14
35649;BME280;21768;48.562;13.414;2022-11-15T04:46:12;97202.66;;;5.18;73.33
35649;BME280;21768;48.562;13.414;2022-11-15T04:48:37;97197.41;;;5.15;73.36
35649;BME280;21768;48.562;13.414;2022-11-15T04:51:02;97196.38;;;5.02;73.26
35649;BME280;21768;48.562;13.414;2022-11-15T04:53:28;97195.38;;;5.00;73.33
35649;BME280;21768;48.562;13.414;2022-11-15T04:55:53;97184.38;;;4.98;73.83
35649;BME280;21768;48.562;13.414;2022-11-15T04:58:18;97186.13;;;4.99;73.37
35649;BME280;21768;48.562;13.414;2022-11-15T05:00:44;97182.63;;;4.97;73.61
35649;BME280;21768;48.562;13.414;2022-11-15T05:03:09;97181.63;;;4.95;73.60
35649;BME280;21768;48.562;13.414;2022-11-15T05:05:54;97187.50;;;4.86;73.50
35649;BME280;21768;48.562;13.414;2022-11-15T05:08:19;97184.09;;;4.75;73.85
35649;BME280;21768;48.562;13.414;2022-11-15T05:10:45;97184.97;;;4.65;73.73
35649;BME280;21768;48.562;13.414;2022-11-15T05:13:10;97191.44;;;4.53;73.89
35649;BME280;21768;48.562;13.414;2022-11-15T05:15:35;97186.56;;;4.44;74.17
35649;BME280;21768;48.562;13.414;2022-11-15T05:18:01;97181.78;;;4.48;74.13
35649;BME280;21768;48.562;13.414;2022-11-15T05:20:26;97185.44;;;4.51;74.35
35649;BME280;21768;48.562;13.414;2022-11-15T05:22:53;97185.81;;;4.56;74.03
35649;BME280;21768;48.562;13.414;2022-11-15T05:25:21;97176.09;;;4.59;73.96
35649;BME280;21768;48.562;13.414;2022-11-15T05:27:46;97169.34;;;4.58;74.12
35649;BME280;21768;48.562;13.414;2022-11-15T05:30:12;97167.84;;;4.60;74.08
35649;BME280;21768;48.562;13.414;2022-11-15T05:32:37;97161.34;;;4.62;74.32
35649;BME280;21768;48.562;13.414;2022-11-15T05:35:05;97156.00;;;4.67;74.12
35649;BME280;21768;48.562;13.414;2022-11-15T05:37:33;97145.00;;;4.65;74.06
35649;BME280;21768;48.562;13.414;2022-11-15T05:39:58;97155.13;;;4.67;73.97
35649;BME280;21768;48.562;13.414;2022-11-15T05:42:24;97151.63;;;4.65;74.10
35649;BME280;21768;48.562;13.414;2022-11-15T05:44:51;97153.13;;;4.63;74.18
35649;BME280;21768;48.562;13.414;2022-11-15T05:47:19;97147.84;;;4.60;74.22
35649;BME280;21768;48.562;13.414;2022-11-15T05:49:47;97153.88;;;4.62;74.13
35649;BME280;21768;48.562;13.414;2022-11-15T05:52:17;97148.13;;;4.63;74.26
35649;BME280;21768;48.562;13.414;2022-11-15T05:54:44;97144.13;;;4.65;74.03
35649;BME280;21768;48.562;13.414;2022-11-15T05:57:09;97150.88;;;4.66;73.86
35649;BME280;21768;48.562;13.414;2022-11-15T05:59:35;97147.50;;;4.65;74.03
35649;BME280;21768;48.562;13.414;2022-11-15T06:02:01;97151.75;;;4.66;73.76
35649;BME280;21768;48.562;13.414;2022-11-15T06:04:26;97147.50;;;4.65;73.68
35649;BME280;21768;48.562;13.414;2022-11-15T06:06:52;97143.38;;;4.66;73.75
35649;BME280;21768;48.562;13.414;2022-11-15T06:09:17;97139.75;;;4.62;73.77
35649;BME280;21768;48.562;13.414;2022-11-15T06:11:43;97148.34;;;4.56;73.74
35649;BME280;21768;48.562;13.414;2022-11-15T06:14:08;97152.09;;;4.51;73.71
35649;BME280;21768;48.562;13.414;2022-11-15T06:16:33;97139.09;;;4.44;74.00
35649;BME280;21768;48.562;13.414;2022-11-15T06:18:59;97133.59;;;4.38;74.09
35649;BME280;21768;48.562;13.414;2022-11-15T06:21:24;97137.84;;;4.39;74.30
35649;BME280;21768;48.562;13.414;2022-11-15T06:23:53;97132.72;;;4.48;74.29
35649;BME280;21768;48.562;13.414;2022-11-15T06:26:18;97135.13;;;4.57;74.08
35649;BME280;21768;48.562;13.414;2022-11-15T06:28:43;97133.13;;;4.63;74.09
35649;BME280;21768;48.562;13.414;2022-11-15T06:31:10;97135.41;;;4.70;74.07
35649;BME280;21768;48.562;13.414;2022-11-15T06:33:39;97132.38;;;4.74;74.02
35649;BME280;21768;48.562;13.414;2022-11-15T06:36:10;97122.63;;;4.77;74.14
35649;BME280;21768;48.562;13.414;2022-11-15T06:38:38;97128.91;;;4.92;74.28
35649;BME280;21768;48.562;13.414;2022-11-15T06:41:06;97131.13;;;4.99;74.10
35649;BME280;21768;48.562;13.414;2022-11-15T06:43:32;97126.88;;;5.08;73.88
35649;BME280;21768;48.562;13.414;2022-11-15T06:45:59;97132.63;;;5.18;73.66
35649;BME280;21768;48.562;13.414;2022-11-15T06:48:25;97131.84;;;5.29;73.37
35649;BME280;21768;48.562;13.414;2022-11-15T06:50:55;97127.34;;;5.35;73.33
35649;BME280;21768;48.562;13.414;2022-11-15T06:53:20;97136.97;;;5.40;73.27
35649;BME280;21768;48.562;13.414;2022-11-15T06:55:46;97133.31;;;5.47;73.13
35649;BME280;21768;48.562;13.414;2022-11-15T06:58:12;97133.56;;;5.50;73.37
35649;BME280;21768;48.562;13.414;2022-11-15T07:00:37;97150.56;;;5.54;73.24
35649;BME280;21768;48.562;13.414;2022-11-15T07:03:03;97137.56;;;5.58;72.93
35649;BME280;21768;48.562;13.414;2022-11-15T07:05:28;97136.06;;;5.60;73.31
35649;BME280;21768;48.562;13.414;2022-11-15T07:07:55;97138.06;;;5.64;73.15
35649;BME280;21768;48.562;13.414;2022-11-15T07:10:21;97137.28;;;5.65;73.25
35649;BME280;21768;48.562;13.414;2022-11-15T07:12:50;97136.38;;;5.75;73.00
35649;BME280;21768;48.562;13.414;2022-11-15T07:15:16;97137.75;;;5.81;72.93
35649;BME280;21768;48.562;13.414;2022-11-15T07:17:42;97136.88;;;5.91;72.45
35649;BME280;21768;48.562;13.414;2022-11-15T07:20:08;97129.69;;;5.96;72.42
35649;BME280;21768;48.562;13.414;2022-11-15T07:22:33;97122.16;;;6.06;72.39
35649;BME280;21768;48.562;13.414;2022-11-15T07:24:59;97125.38;;;6.15;72.10
35649;BME280;21768;48.562;13.414;2022-11-15T07:27:24;97125.31;;;6.25;71.70
35649;BME280;21768;48.562;13.414;2022-11-15T07:29:49;97115.63;;;6.30;71.46
35649;BME280;21768;48.562;13.414;2022-11-15T07:32:15;97118.50;;;6.34;71.47
35649;BME280;21768;48.562;13.414;2022-11-15T07:34:40;97114.59;;;6.38;71.38
35649;BME280;21768;48.562;13.414;2022-11-15T07:37:05;97108.88;;;6.51;71.23
35649;BME280;21768;48.562;13.414;2022-11-15T07:39:31;97109.81;;;6.63;71.48
35649;BME280;21768;48.562;13.414;2022-11-15T07:41:56;97105.03;;;6.77;70.83
35649;BME280;21768;48.562;13.414;2022-11-15T07:44:41;97102.41;;;6.76;70.83
35649;BME280;21768;48.562;13.414;2022-11-15T07:47:07;97107.78;;;6.80;70.95
35649;BME280;21768;48.562;13.414;2022-11-15T07:49:32;97113.91;;;6.84;70.82
35649;BME280;21768;48.562;13.414;2022-11-15T07:51:57;97114.13;;;6.87;70.82
35649;BME280;21768;48.562;13.414;2022-11-15T07:54:23;97107.91;;;6.94;70.48
35649;BME280;21768;48.562;13.414;2022-11-15T07:56:48;97111.00;;;7.01;70.50
35649;BME280;21768;48.562;13.414;2022-11-15T07:59:13;97106.19;;;7.04;70.22
35649;BME280;21768;48.562;13.414;2022-11-15T08:01:39;97108.94;;;7.07;70.54
35649;BME280;21768;48.562;13.414;2022-11-15T08:04:04;97103.91;;;7.19;70.35
35649;BME280;21768;48.562;13.414;2022-11-15T08:06:29;97108.84;;;7.29;70.15
35649;BME280;21768;48.562;13.414;2022-11-15T08:08:55;97106.38;;;7.41;69.70
35649;BME280;21768;48.562;13.414;2022-11-15T08:11:20;97108.22;;;7.55;69.75
35649;BME280;21768;48.562;13.414;2022-11-15T08:13:46;97104.81;;;7.78;69.53
35649;BME280;21768;48.562;13.414;2022-11-15T08:16:11;97105.00;;;7.93;68.90
35649;BME280;21768;48.562;13.414;2022-11-15T08:18:37;97098.44;;;7.95;69.03
35649;BME280;21768;48.562;13.414;2022-11-15T08:21:03;97096.91;;;8.08;68.96
35649;BME280;21768;48.562;13.414;2022-11-15T08:23:28;97089.22;;;8.30;68.54
35649;BME280;21768;48.562;13.414;2022-11-15T08:25:59;97085.78;;;8.41;68.49
35649;BME280;21768;48.562;13.414;2022-11-15T08:28:26;97074.06;;;8.53;68.29
35649;BME280;21768;48.562;13.414;2022-11-15T08:30:51;97077.00;;;8.60;68.33
35649;BME280;21768;48.562;13.414;2022-11-15T08:33:16;97072.41;;;8.79;68.23
35649;BME280;21768;48.562;13.414;2022-11-15T08:35:43;97070.63;;;9.03;67.72
35649;BME280;21768;48.562;13.414;2022-11-15T08:38:09;97069.03;;;9.30;67.23
35649;BME280;21768;48.562;13.414;2022-11-15T08:40:35;97066.94;;;10.03;66.42
35649;BME280;21768;48.562;13.414;2022-11-15T08:43:00;97066.00;;;11.89;61.94
35649;BME280;21768;48.562;13.414;2022-11-15T08:45:30;97058.00;;;13.80;56.77
35649;BME280;21768;48.562;13.414;2022-11-15T08:47:56;97061.00;;;14.08;55.51
35649;BME280;21768;48.562;13.414;2022-11-15T08:50:22;97058.41;;;13.71;56.74
35649;BME280;21768;48.562;13.414;2022-11-15T08:52:48;97058.56;;;13.74;57.12
35649;BME280;21768;48.562;13.414;2022-11-15T08:55:14;97053.63;;;15.09;53.96
35649;BME280;21768;48.562;13.414;2022-11-15T08:57:39;97051.25;;;16.65;49.45
35649;BME280;21768;48.562;13.414;2022-11-15T09:00:05;97043.41;;;17.61;46.81
35649;BME280;21768;48.562;13.414;2022-11-15T09:02:31;97037.84;;;17.99;45.74
35649;BME280;21768;48.562;13.414;2022-11-15T09:04:56;97046.78;;;18.14;45.17
35649;BME280;21768;48.562;13.414;2022-11-15T09:07:22;97047.56;;;17.57;45.70
35649;BME280;21768;48.562;13.414;2022-11-15T09:09:47;97039.84;;;17.04;46.95
35649;BME280;21768;48.562;13.414;2022-11-15T09:12:12;97038.72;;;16.95;47.08
35649;BME280;21768;48.562;13.414;2022-11-15T09:14:38;97037.53;;;17.11;46.42
35649;BME280;21768;48.562;13.414;2022-11-15T09:17:07;97038.81;;;17.75;44.90
35649;BME280;21768;48.562;13.414;2022-11-15T09:19:33;97042.75;;;18.50;43.59
35649;BME280;21768;48.562;13.414;2022-11-15T09:21:58;97048.78;;;19.15;42.31
35649;BME280;21768;48.562;13.414;2022-11-15T09:24:24;97048.34;;;19.30;41.56
35649;BME280;21768;48.562;13.414;2022-11-15T09:26:51;97033.25;;;19.75;40.68
35649;BME280;21768;48.562;13.414;2022-11-15T09:29:17;97030.13;;;20.26;40.06
35649;BME280;21768;48.562;13.414;2022-11-15T09:31:42;97028.31;;;20.22;39.93
35649;BME280;21768;48.562;13.414;2022-11-15T09:34:08;97021.56;;;20.66;39.54
35649;BME280;21768;48.562;13.414;2022-11-15T09:36:33;97012.38;;;20.77;38.43
35649;BME280;21768;48.562;13.414;2022-11-15T09:38:59;97006.28;;;20.72;38.64
35649;BME280;21768;48.562;13.414;2022-11-15T09:44:37;96996.72;;;20.63;38.88
35649;BME280;21768;48.562;13.414;2022-11-15T09:47:21;96996.28;;;18.95;41.59
35649;BME280;21768;48.562;13.414;2022-11-15T09:49:53;96989.53;;;18.06;43.74
35649;BME280;21768;48.562;13.414;2022-11-15T09:52:20;96990.19;;;17.45;44.98
35649;BME280;21768;48.562;13.414;2022-11-15T09:54:50;96992.56;;;16.88;45.89
35649;BME280;21768;48.562;13.414;2022-11-15T09:57:38;96990.31;;;16.48;47.20
35649;BME280;21768;48.562;13.414;2022-11-15T10:02:54;96977.63;;;20.09;43.23
35649;BME280;21768;48.562;13.414;2022-11-15T10:05:25;96970.00;;;22.79;36.59
35649;BME280;21768;48.562;13.414;2022-11-15T10:08:06;96951.34;;;24.22;32.98
35649;BME280;21768;48.562;13.414;2022-11-15T10:10:39;96956.53;;;23.04;35.02
35649;BME280;21768;48.562;13.414;2022-11-15T10:13:13;96957.25;;;21.55;38.38
35649;BME280;21768;48.562;13.414;2022-11-15T10:15:43;96957.00;;;21.38;38.53
35649;BME280;21768;48.562;13.414;2022-11-15T10:21:07;96940.94;;;23.99;35.54
35649;BME280;21768;48.562;13.414;2022-11-15T10:23:38;96938.69;;;25.09;31.67
35649;BME280;21768;48.562;13.414;2022-11-15T10:26:07;96939.47;;;24.81;32.60
35649;BME280;21768;48.562;13.414;2022-11-15T10:28:34;96937.50;;;24.06;33.56
35649;BME280;21768;48.562;13.414;2022-11-15T10:31:00;96926.88;;;23.49;34.96
35649;BME280;21768;48.562;13.414;2022-11-15T10:44:24;96898.06;;;26.05;31.01
35649;BME280;21768;48.562;13.414;2022-11-15T10:47:33;96892.19;;;25.64;31.45
35649;BME280;21768;48.562;13.414;2022-11-15T10:49:34;96896.34;;;26.04;30.80
35649;BME280;21768;48.562;13.414;2022-11-15T10:52:16;96889.41;;;26.19;31.16
35649;BME280;21768;48.562;13.414;2022-11-15T10:54:45;96890.50;;;25.09;32.10
35649;BME280;21768;48.562;13.414;2022-11-15T10:57:17;96878.41;;;24.89;32.10
35649;BME280;21768;48.562;13.414;2022-11-15T10:59:52;96881.03;;;25.13;31.91
35649;BME280;21768;48.562;13.414;2022-11-15T11:02:32;96862.06;;;24.68;32.89
35649;BME280;21768;48.562;13.414;2022-11-15T11:04:58;96864.66;;;24.74;33.28
35649;BME280;21768;48.562;13.414;2022-11-15T11:07:27;96864.63;;;24.76;32.76
35649;BME280;21768;48.562;13.414;2022-11-15T11:10:17;96853.47;;;25.03;33.03
35649;BME280;21768;48.562;13.414;2022-11-15T11:12:43;96853.34;;;25.79;31.88
35649;BME280;21768;48.562;13.414;2022-11-15T11:15:13;96841.16;;;26.13;32.60
35649;BME280;21768;48.562;13.414;2022-11-15T11:17:55;96840.19;;;26.28;31.11
35649;BME280;21768;48.562;13.414;2022-11-15T11:20:28;96841.59;;;27.74;29.20
35649;BME280;21768;48.562;13.414;2022-11-15T11:34:17;96812.53;;;30.54;25.64
35649;BME280;21768;48.562;13.414;2022-11-15T11:45:11;96800.22;;;31.93;23.31
35649;BME280;21768;48.562;13.414;2022-11-15T11:50:17;96787.25;;;33.28;22.56
35649;BME280;21768;48.562;13.414;2022-11-15T11:55:51;96774.56;;;34.36;21.65
35649;BME280;21768;48.562;13.414;2022-11-15T11:58:38;96766.69;;;34.79;21.37
35649;BME280;21768;48.562;13.414;2022-11-15T12:17:33;96727.50;;;33.64;21.80
35649;BME280;21768;48.562;13.414;2022-11-15T12:20:16;96718.06;;;33.37;21.61
35649;BME280;21768;48.562;13.414;2022-11-15T12:23:05;96728.06;;;32.99;21.79
35649;BME280;21768;48.562;13.414;2022-11-15T12:33:34;96702.63;;;33.76;20.94
35649;BME280;21768;48.562;13.414;2022-11-15T12:36:04;96702.34;;;33.60;20.75
35649;BME280;21768;48.562;13.414;2022-11-15T12:41:21;96699.09;;;30.06;24.31
35649;BME280;21768;48.562;13.414;2022-11-15T12:43:48;96704.00;;;27.17;28.28
35649;BME280;21768;48.562;13.414;2022-11-15T12:57:27;96704.25;;;19.98;37.75
35649;BME280;21768;48.562;13.414;2022-11-15T13:02:38;96695.47;;;18.97;40.59
35649;BME280;21768;48.562;13.414;2022-11-15T13:10:29;96688.41;;;17.46;43.27
35649;BME280;21768;48.562;13.414;2022-11-15T13:13:07;96695.56;;;16.97;45.34
35649;BME280;21768;48.562;13.414;2022-11-15T13:15:34;96688.50;;;16.60;46.67
35649;BME280;21768;48.562;13.414;2022-11-15T13:20:45;96684.25;;;16.06;48.58
35649;BME280;21768;48.562;13.414;2022-11-15T13:23:13;96668.22;;;15.81;48.71
35649;BME280;21768;48.562;13.414;2022-11-15T13:28:37;96670.31;;;15.20;49.88
35649;BME280;21768;48.562;13.414;2022-11-15T13:31:35;96665.00;;;14.90;48.89
35649;BME280;21768;48.562;13.414;2022-11-15T13:34:16;96667.97;;;14.78;50.47
35649;BME280;21768;48.562;13.414;2022-11-15T13:36:42;96664.97;;;14.66;51.33
35649;BME280;21768;48.562;13.414;2022-11-15T13:39:32;96659.78;;;14.41;51.12
35649;BME280;21768;48.562;13.414;2022-11-15T13:41:59;96668.28;;;14.20;52.64
35649;BME280;21768;48.562;13.414;2022-11-15T13:44:26;96663.59;;;14.09;53.42
35649;BME280;21768;48.562;13.414;2022-11-15T13:47:15;96661.50;;;13.99;53.70
35649;BME280;21768;48.562;13.414;2022-11-15T13:49:41;96655.19;;;13.89;53.81
35649;BME280;21768;48.562;13.414;2022-11-15T13:52:10;96664.25;;;13.82;54.15
35649;BME280;21768;48.562;13.414;2022-11-15T13:54:58;96656.25;;;13.73;53.80
35649;BME280;21768;48.562;13.414;2022-11-15T13:57:38;96658.66;;;13.70;54.66
35649;BME280;21768;48.562;13.414;2022-11-15T14:00:38;96654.53;;;13.51;54.60
35649;BME280;21768;48.562;13.414;2022-11-15T14:03:07;96658.88;;;13.35;55.69
35649;BME280;21768;48.562;13.414;2022-11-15T14:05:33;96656.63;;;13.21;55.88
35649;BME280;21768;48.562;13.414;2022-11-15T14:08:03;96661.44;;;13.15;56.40
35649;BME280;21768;48.562;13.414;2022-11-15T14:12:56;96660.22;;;13.07;56.72
35649;BME280;21768;48.562;13.414;2022-11-15T14:15:32;96654.88;;;13.01;57.35
35649;BME280;21768;48.562;13.414;2022-11-15T14:17:59;96651.00;;;12.90;57.08
35649;BME280;21768;48.562;13.414;2022-11-15T14:22:58;96653.69;;;12.74;58.08
35649;BME280;21768;48.562;13.414;2022-11-15T14:25:25;96649.28;;;12.70;58.55
35649;BME280;21768;48.562;13.414;2022-11-15T14:28:28;96644.88;;;12.66;58.10
35649;BME280;21768;48.562;13.414;2022-11-15T14:30:56;96635.44;;;12.62;58.87
35649;BME280;21768;48.562;13.414;2022-11-15T14:33:29;96638.56;;;12.56;58.97
35649;BME280;21768;48.562;13.414;2022-11-15T14:35:57;96639.13;;;12.50;59.16
35649;BME280;21768;48.562;13.414;2022-11-15T14:38:23;96632.06;;;12.43;59.05
35649;BME280;21768;48.562;13.414;2022-11-15T14:40:49;96636.09;;;12.40;59.23
35649;BME280;21768;48.562;13.414;2022-11-15T14:43:15;96630.44;;;12.26;59.40
35649;BME280;21768;48.562;13.414;2022-11-15T14:45:41;96629.81;;;12.12;60.02
35649;BME280;21768;48.562;13.414;2022-11-15T14:48:06;96631.97;;;12.05;60.57
35649;BME280;21768;48.562;13.414;2022-11-15T14:50:33;96623.88;;;11.94;60.85
35649;BME280;21768;48.562;13.414;2022-11-15T14:52:59;96636.97;;;11.85;61.23
35649;BME280;21768;48.562;13.414;2022-11-15T14:55:34;96636.41;;;11.75;61.15
35649;BME280;21768;48.562;13.414;2022-11-15T14:58:05;96631.63;;;11.63;61.46
35649;BME280;21768;48.562;13.414;2022-11-15T15:00:36;96627.75;;;11.52;61.81
35649;BME280;21768;48.562;13.414;2022-11-15T15:03:02;96626.34;;;11.41;62.04
35649;BME280;21768;48.562;13.414;2022-11-15T15:05:39;96626.53;;;11.28;62.52
35649;BME280;21768;48.562;13.414;2022-11-15T15:08:05;96633.97;;;11.24;62.56
35649;BME280;21768;48.562;13.414;2022-11-15T15:10:36;96637.03;;;11.19;62.91
35649;BME280;21768;48.562;13.414;2022-11-15T15:13:03;96640.78;;;11.09;62.87
35649;BME280;21768;48.562;13.414;2022-11-15T15:15:36;96634.56;;;11.03;63.02